Time;durP1;ratioP1;P1;durP2;ratioP2;P2;SDS_P1;SDS_P2;PMS_P1;PMS_P2;Temp;Humidity;BMP_temperature;BMP_pressure;BME280_temperature;BME280_humidity;BME280_pressure;Samples;Min_cycle;Max_cycle;Signal;HPM_P1;HPM_P2
2021/12/23 00:00:39;;;;;;;27.13;12.57;;;1.30;99.90;;;;;;5077361;28;20200;-61
2021/12/23 00:03:06;;;;;;;24.83;12.17;;;1.30;99.90;;;;;;5061564;28;20265;-61
2021/12/23 00:05:34;;;;;;;27.27;11.37;;;1.30;99.90;;;;;;5070056;28;20663;-62
2021/12/23 00:08:02;;;;;;;33.27;13.90;;;1.30;99.90;;;;;;5077727;28;20556;-62
2021/12/23 00:10:29;;;;;;;28.43;12.40;;;1.40;99.90;;;;;;5072049;28;20654;-62
2021/12/23 00:12:56;;;;;;;22.33;10.80;;;1.40;99.90;;;;;;5075772;28;20236;-62
2021/12/23 00:15:29;;;;;;;36.70;15.33;;;1.40;99.90;;;;;;5073075;28;20242;-61
2021/12/23 00:18:01;;;;;;;35.93;14.50;;;1.40;99.90;;;;;;5074304;28;20201;-61
2021/12/23 00:23:28;;;;;;;26.70;12.47;;;1.50;99.90;;;;;;5072400;28;20234;-61
2021/12/23 00:26:03;;;;;;;23.67;11.00;;;1.50;99.90;;;;;;5071701;28;20246;-62
2021/12/23 00:28:31;;;;;;;22.40;9.77;;;1.50;99.90;;;;;;5071583;28;20344;-61
2021/12/23 00:31:00;;;;;;;25.23;11.27;;;1.50;99.90;;;;;;5087401;28;20192;-62
2021/12/23 00:33:29;;;;;;;15.80;8.13;;;1.60;99.90;;;;;;5077690;28;20207;-62
2021/12/23 00:35:57;;;;;;;13.40;7.33;;;1.60;99.90;;;;;;5069928;28;20253;-62
2021/12/23 00:38:28;;;;;;;12.03;6.60;;;1.60;99.90;;;;;;5089850;28;20261;-62
2021/12/23 00:40:58;;;;;;;22.97;10.33;;;1.60;99.90;;;;;;5087624;28;20188;-61
2021/12/23 00:43:25;;;;;;;27.53;12.47;;;1.70;99.90;;;;;;5090670;28;20193;-61
2021/12/23 00:45:53;;;;;;;21.67;10.83;;;1.70;99.90;;;;;;5081122;28;20237;-60
2021/12/23 00:48:20;;;;;;;19.93;10.30;;;1.70;99.90;;;;;;5082731;28;20212;-61
2021/12/23 00:50:48;;;;;;;29.43;13.10;;;1.70;99.90;;;;;;5089036;28;20200;-61
2021/12/23 00:53:18;;;;;;;23.07;11.40;;;1.70;99.90;;;;;;5072035;28;20221;-61
2021/12/23 00:55:47;;;;;;;21.20;9.60;;;1.70;99.90;;;;;;5069690;28;20193;-61
2021/12/23 00:58:15;;;;;;;22.00;9.80;;;1.70;99.90;;;;;;5079646;28;20201;-61
2021/12/23 01:00:42;;;;;;;27.70;11.13;;;1.60;99.90;;;;;;5076990;28;20207;-61
2021/12/23 01:03:09;;;;;;;23.00;9.90;;;1.70;99.90;;;;;;5075634;28;20204;-62
2021/12/23 01:05:37;;;;;;;24.73;9.17;;;1.70;99.90;;;;;;5077036;28;20254;-60
2021/12/23 01:08:06;;;;;;;21.33;9.10;;;1.80;99.90;;;;;;5074966;28;20205;-60
2021/12/23 01:10:33;;;;;;;25.73;9.73;;;1.70;99.90;;;;;;5074972;28;20208;-61
2021/12/23 01:13:03;;;;;;;18.60;8.00;;;1.80;99.90;;;;;;5064448;28;20193;-61
2021/12/23 01:18:21;;;;;;;11.20;6.60;;;1.70;99.90;;;;;;5068639;28;20200;-61
2021/12/23 01:20:52;;;;;;;14.70;7.40;;;1.70;99.90;;;;;;5074746;28;20257;-61
2021/12/23 01:23:23;;;;;;;16.20;7.40;;;1.70;99.90;;;;;;5072156;28;20584;-61
2021/12/23 01:25:52;;;;;;;17.77;7.73;;;1.70;99.90;;;;;;5071778;28;20197;-61
2021/12/23 01:28:21;;;;;;;12.00;6.53;;;1.60;99.90;;;;;;5071030;28;20621;-62
2021/12/23 01:30:49;;;;;;;27.30;11.70;;;1.60;99.90;;;;;;5071614;28;20204;-62
2021/12/23 01:33:16;;;;;;;23.47;10.77;;;1.70;99.90;;;;;;5081738;28;20545;-61
2021/12/23 01:35:45;;;;;;;20.77;9.83;;;1.60;99.90;;;;;;5077934;28;20193;-62
2021/12/23 01:38:12;;;;;;;24.60;11.10;;;1.70;99.90;;;;;;5075756;28;20649;-62
2021/12/23 01:40:44;;;;;;;18.00;9.43;;;1.70;99.90;;;;;;5073479;28;20200;-63
2021/12/23 01:43:11;;;;;;;15.50;8.77;;;1.60;99.90;;;;;;5086806;28;20575;-61
2021/12/23 01:45:45;;;;;;;13.57;7.97;;;1.60;99.90;;;;;;5083947;28;20307;-62
2021/12/23 01:48:12;;;;;;;13.40;6.97;;;1.60;99.90;;;;;;5082982;28;20279;-62
2021/12/23 01:50:39;;;;;;;15.17;8.23;;;1.60;99.90;;;;;;5087224;28;20196;-63
2021/12/23 01:53:08;;;;;;;15.53;8.00;;;1.60;99.90;;;;;;5080594;28;20208;-63
2021/12/23 01:55:37;;;;;;;17.47;9.13;;;1.60;99.90;;;;;;5083656;28;20728;-61
2021/12/23 01:58:07;;;;;;;26.33;12.63;;;1.60;99.90;;;;;;5082485;28;20193;-62
2021/12/23 02:00:37;;;;;;;25.53;12.47;;;1.70;99.90;;;;;;5078664;28;20236;-62
2021/12/23 02:03:05;;;;;;;21.93;9.70;;;1.70;99.90;;;;;;5078224;28;20224;-63
2021/12/23 02:05:32;;;;;;;21.03;10.13;;;1.70;99.90;;;;;;5073744;28;20224;-63
2021/12/23 02:08:00;;;;;;;21.70;8.47;;;1.60;99.90;;;;;;5077932;28;20506;-62
2021/12/23 02:10:28;;;;;;;24.67;12.77;;;1.60;99.90;;;;;;5078001;28;20241;-62
2021/12/23 02:12:55;;;;;;;33.13;13.73;;;1.60;99.90;;;;;;5070645;28;20196;-62
2021/12/23 02:15:23;;;;;;;28.50;13.67;;;1.60;99.90;;;;;;5077128;28;20226;-61
2021/12/23 02:17:51;;;;;;;24.20;12.37;;;1.50;99.90;;;;;;5062888;28;20227;-60
2021/12/23 02:20:21;;;;;;;19.70;9.83;;;1.50;99.90;;;;;;5074299;28;20204;-61
2021/12/23 02:22:49;;;;;;;16.70;9.07;;;1.50;99.90;;;;;;5061616;28;20208;-61
2021/12/23 02:25:17;;;;;;;22.17;9.63;;;1.50;99.90;;;;;;5072645;28;20245;-61
2021/12/23 02:27:46;;;;;;;21.90;10.20;;;1.50;99.90;;;;;;5069617;28;20615;-62
2021/12/23 02:30:16;;;;;;;18.00;9.60;;;1.50;99.90;;;;;;5070658;28;20193;-62
2021/12/23 02:32:43;;;;;;;15.53;7.63;;;1.50;99.90;;;;;;5084589;28;20189;-61
2021/12/23 02:35:14;;;;;;;19.83;9.70;;;1.50;99.90;;;;;;5056854;28;20198;-62
2021/12/23 02:37:45;;;;;;;29.00;13.10;;;1.50;99.90;;;;;;5078189;28;20497;-62
2021/12/23 02:40:22;;;;;;;31.67;13.83;;;1.50;99.90;;;;;;5070517;28;20607;-62
2021/12/23 02:42:49;;;;;;;22.30;11.40;;;1.60;99.90;;;;;;5086195;28;20219;-62
2021/12/23 02:45:17;;;;;;;22.80;10.67;;;1.50;99.90;;;;;;5072294;28;20208;-62
2021/12/23 02:47:44;;;;;;;21.63;10.73;;;1.50;99.90;;;;;;5086089;28;20277;-62
2021/12/23 02:50:11;;;;;;;22.30;10.87;;;1.50;99.90;;;;;;5075251;28;20577;-61
2021/12/23 02:52:38;;;;;;;26.77;12.60;;;1.50;99.90;;;;;;5084220;28;20203;-60
2021/12/23 02:55:07;;;;;;;26.80;12.67;;;1.50;99.90;;;;;;5078534;28;20197;-61
2021/12/23 02:57:35;;;;;;;29.60;13.50;;;1.50;99.90;;;;;;5076438;28;20279;-61
2021/12/23 03:00:03;;;;;;;29.87;13.27;;;1.50;99.90;;;;;;5076150;28;20196;-60
2021/12/23 03:02:30;;;;;;;28.20;12.73;;;1.50;99.90;;;;;;5080546;28;20679;-61
2021/12/23 03:04:58;;;;;;;38.47;16.37;;;1.40;99.90;;;;;;5076383;28;20201;-61
2021/12/23 03:07:25;;;;;;;32.07;15.30;;;1.40;99.90;;;;;;5080635;28;20192;-61
2021/12/23 03:09:52;;;;;;;40.63;16.57;;;1.30;99.90;;;;;;5075364;28;20266;-62
2021/12/23 03:12:20;;;;;;;37.10;16.17;;;1.30;99.90;;;;;;5070071;28;20188;-61
2021/12/23 03:14:47;;;;;;;31.23;14.30;;;1.30;99.90;;;;;;5064262;28;20986;-61
2021/12/23 03:17:15;;;;;;;28.90;12.87;;;1.30;99.90;;;;;;5075911;28;20223;-62
2021/12/23 03:19:42;;;;;;;29.47;12.73;;;1.30;99.90;;;;;;5071536;28;20203;-62
2021/12/23 03:22:09;;;;;;;28.73;14.07;;;1.30;99.90;;;;;;5069824;28;20205;-61
2021/12/23 03:24:36;;;;;;;22.90;11.77;;;1.30;99.90;;;;;;5070228;28;20224;-63
2021/12/23 03:27:03;;;;;;;35.20;15.00;;;1.30;99.90;;;;;;5072158;28;20209;-63
2021/12/23 03:29:32;;;;;;;28.27;13.30;;;1.30;99.90;;;;;;5075825;28;20208;-62
2021/12/23 03:31:59;;;;;;;28.53;13.40;;;1.30;99.90;;;;;;5071249;28;20201;-62
2021/12/23 03:34:26;;;;;;;36.53;15.40;;;1.40;99.90;;;;;;5073121;28;20200;-62
2021/12/23 03:36:53;;;;;;;27.87;13.50;;;1.20;99.90;;;;;;5079219;28;20200;-62
2021/12/23 03:39:20;;;;;;;36.77;15.53;;;1.20;99.90;;;;;;5089461;28;20200;-62
2021/12/23 03:41:48;;;;;;;26.77;12.50;;;1.10;99.90;;;;;;5081266;28;20201;-63
2021/12/23 03:44:16;;;;;;;36.37;14.50;;;1.10;99.90;;;;;;5084753;28;20566;-62
2021/12/23 03:46:45;;;;;;;26.40;11.87;;;1.00;99.90;;;;;;5075412;28;20295;-63
2021/12/23 03:49:12;;;;;;;28.63;12.23;;;1.10;99.90;;;;;;5075338;28;20192;-62
2021/12/23 03:51:39;;;;;;;29.50;12.00;;;1.10;99.90;;;;;;5076588;28;20200;-62
2021/12/23 03:54:06;;;;;;;30.63;11.43;;;1.10;99.90;;;;;;5082543;28;20194;-61
2021/12/23 03:56:33;;;;;;;38.20;14.07;;;1.10;99.90;;;;;;5077259;28;20200;-61
2021/12/23 03:59:00;;;;;;;28.47;12.30;;;1.20;99.90;;;;;;5073325;28;20602;-62
2021/12/23 04:01:29;;;;;;;30.37;13.33;;;1.20;99.90;;;;;;5070757;28;20203;-62
2021/12/23 04:03:58;;;;;;;27.57;11.70;;;1.10;99.90;;;;;;5075230;28;20236;-61
2021/12/23 04:06:26;;;;;;;22.43;10.87;;;1.10;99.90;;;;;;5072397;28;20199;-62
2021/12/23 04:08:54;;;;;;;20.03;9.33;;;1.10;99.90;;;;;;5074182;28;20224;-62
2021/12/23 04:11:22;;;;;;;23.27;10.37;;;1.10;99.90;;;;;;5059284;28;20291;-61
2021/12/23 04:13:52;;;;;;;31.17;15.03;;;1.10;99.90;;;;;;5073986;28;20660;-61
2021/12/23 04:16:20;;;;;;;33.33;14.27;;;1.10;99.90;;;;;;5072111;28;20259;-62
2021/12/23 04:18:50;;;;;;;20.23;10.30;;;1.10;99.90;;;;;;5072918;28;20505;-61
2021/12/23 04:21:18;;;;;;;33.50;15.63;;;1.10;99.90;;;;;;5067779;28;20192;-61
2021/12/23 04:23:45;;;;;;;27.57;12.47;;;1.10;99.90;;;;;;5086213;28;20602;-61
2021/12/23 04:26:13;;;;;;;25.17;11.70;;;1.10;99.90;;;;;;5089755;28;20201;-61
2021/12/23 04:28:45;;;;;;;23.90;10.63;;;1.10;99.90;;;;;;5088859;28;20254;-61
2021/12/23 04:31:13;;;;;;;29.90;13.90;;;1.10;99.90;;;;;;5061673;28;20656;-61
2021/12/23 04:33:40;;;;;;;31.33;12.83;;;1.10;99.90;;;;;;5073264;28;20197;-62
2021/12/23 04:36:09;;;;;;;31.20;14.30;;;1.10;99.90;;;;;;5081450;28;20279;-62
2021/12/23 04:38:39;;;;;;;26.80;12.67;;;1.00;99.90;;;;;;5087526;28;20212;-62
2021/12/23 04:41:07;;;;;;;31.83;14.03;;;1.00;99.90;;;;;;5068399;28;20203;-62
2021/12/23 04:43:34;;;;;;;34.63;14.47;;;1.00;99.90;;;;;;5086487;28;20259;-62
2021/12/23 04:46:01;;;;;;;36.93;16.90;;;1.00;99.90;;;;;;5090061;28;20296;-62
2021/12/23 04:48:29;;;;;;;33.57;15.10;;;1.00;99.90;;;;;;5088435;28;20216;-62
2021/12/23 04:50:56;;;;;;;27.17;12.57;;;1.00;99.90;;;;;;5090033;28;20328;-61
2021/12/23 04:53:24;;;;;;;23.47;11.93;;;1.00;99.90;;;;;;5072232;28;20193;-62
2021/12/23 04:55:53;;;;;;;22.83;11.23;;;1.00;99.90;;;;;;5086878;28;20207;-61
2021/12/23 04:58:20;;;;;;;20.73;9.63;;;0.90;99.90;;;;;;5072627;28;20197;-61
2021/12/23 05:00:49;;;;;;;26.63;11.50;;;0.90;99.90;;;;;;5087071;28;20555;-61
2021/12/23 05:03:17;;;;;;;33.70;14.23;;;0.90;99.90;;;;;;5079145;28;20314;-62
2021/12/23 05:05:44;;;;;;;32.53;14.60;;;1.00;99.90;;;;;;5070401;28;20201;-61
2021/12/23 05:08:12;;;;;;;32.60;14.50;;;0.90;99.90;;;;;;5075730;28;20232;-62
2021/12/23 05:10:39;;;;;;;36.77;15.33;;;0.90;99.90;;;;;;5082367;28;20196;-62
2021/12/23 05:13:08;;;;;;;41.60;17.83;;;0.90;99.90;;;;;;5070314;28;20560;-62
2021/12/23 05:15:35;;;;;;;35.60;15.97;;;0.80;99.90;;;;;;5073876;28;20196;-62
2021/12/23 05:18:03;;;;;;;29.70;13.33;;;0.90;99.90;;;;;;5062775;28;20660;-61
2021/12/23 05:20:30;;;;;;;37.80;16.43;;;-0.40;99.90;;;;;;5077547;28;20189;-62
2021/12/23 05:22:57;;;;;;;29.30;14.83;;;0.90;99.90;;;;;;5070940;28;20208;-61
2021/12/23 05:25:25;;;;;;;36.23;17.03;;;0.90;99.90;;;;;;5072289;28;20603;-61
2021/12/23 05:27:54;;;;;;;35.40;16.67;;;0.90;99.90;;;;;;5071330;28;20283;-62
2021/12/23 05:30:25;;;;;;;45.07;19.63;;;0.80;99.90;;;;;;5071483;28;20189;-62
2021/12/23 05:32:52;;;;;;;35.80;16.33;;;0.80;99.90;;;;;;5071615;28;20603;-63
2021/12/23 05:35:21;;;;;;;27.70;12.93;;;0.80;99.90;;;;;;5072128;28;20235;-63
2021/12/23 05:37:49;;;;;;;37.70;16.33;;;0.80;99.90;;;;;;5091749;28;20192;-62
2021/12/23 05:40:19;;;;;;;32.07;13.73;;;0.80;99.90;;;;;;5086138;28;20779;-62
2021/12/23 05:42:47;;;;;;;38.13;16.00;;;0.70;99.90;;;;;;5088457;28;20208;-62
2021/12/23 05:45:15;;;;;;;42.73;18.50;;;0.80;99.90;;;;;;5081992;28;20337;-62
2021/12/23 05:47:44;;;;;;;34.63;14.97;;;0.70;99.90;;;;;;5089353;28;20746;-62
2021/12/23 05:50:12;;;;;;;25.87;12.20;;;0.70;99.90;;;;;;5084391;28;20619;-63
2021/12/23 05:52:40;;;;;;;39.57;15.83;;;0.60;99.90;;;;;;5086161;28;20625;-62
2021/12/23 05:55:08;;;;;;;37.07;15.40;;;0.80;99.90;;;;;;5071424;28;20212;-61
2021/12/23 05:57:36;;;;;;;36.43;16.27;;;0.70;99.90;;;;;;5086417;28;20188;-62
2021/12/23 06:00:06;;;;;;;29.50;13.90;;;0.60;99.90;;;;;;5071801;28;20561;-62
2021/12/23 06:02:36;;;;;;;27.97;12.73;;;0.60;99.90;;;;;;5084295;28;20232;-62
2021/12/23 06:05:05;;;;;;;43.63;17.93;;;0.60;99.90;;;;;;5080221;28;20717;-62
2021/12/23 06:07:33;;;;;;;38.30;17.17;;;0.60;99.90;;;;;;5074598;28;20215;-62
2021/12/23 06:10:00;;;;;;;31.53;15.13;;;0.60;99.90;;;;;;5077867;28;20189;-62
2021/12/23 06:12:27;;;;;;;28.03;13.10;;;0.60;99.90;;;;;;5080054;28;20571;-63
2021/12/23 06:14:54;;;;;;;30.33;15.03;;;0.50;99.90;;;;;;5077629;28;20197;-63
2021/12/23 06:17:22;;;;;;;27.37;12.57;;;0.50;99.90;;;;;;5071080;28;20204;-62
2021/12/23 06:19:49;;;;;;;34.97;15.07;;;-0.50;99.90;;;;;;5075934;28;20197;-62
2021/12/23 06:22:19;;;;;;;30.13;13.37;;;0.50;99.90;;;;;;5072221;28;20201;-62
2021/12/23 06:24:48;;;;;;;31.80;14.10;;;0.50;99.90;;;;;;5070368;28;20771;-63
2021/12/23 06:27:16;;;;;;;27.40;12.43;;;0.60;99.90;;;;;;5075214;28;20533;-63
2021/12/23 06:29:43;;;;;;;21.03;9.77;;;0.60;99.90;;;;;;5074036;28;20193;-63
2021/12/23 06:32:11;;;;;;;21.57;10.60;;;0.60;99.90;;;;;;5069077;28;20224;-63
2021/12/23 06:34:38;;;;;;;30.17;13.30;;;0.60;99.90;;;;;;5066037;28;20719;-62
2021/12/23 06:37:06;;;;;;;37.47;14.63;;;0.60;99.90;;;;;;5085987;28;20333;-62
2021/12/23 06:39:35;;;;;;;26.87;12.60;;;0.60;99.90;;;;;;5078372;28;20664;-61
2021/12/23 06:42:03;;;;;;;29.20;13.00;;;0.60;99.90;;;;;;5082420;28;20288;-62
2021/12/23 06:44:30;;;;;;;22.87;11.37;;;0.70;99.90;;;;;;5088309;28;20208;-62
2021/12/23 06:46:57;;;;;;;33.73;16.00;;;0.70;99.90;;;;;;5083210;28;20236;-62
2021/12/23 06:49:24;;;;;;;30.87;13.37;;;0.70;99.90;;;;;;5087753;28;20203;-62
2021/12/23 06:51:51;;;;;;;28.13;13.10;;;0.70;99.90;;;;;;5082151;28;20721;-62
2021/12/23 06:54:18;;;;;;;21.20;10.87;;;0.60;99.90;;;;;;5087910;28;20203;-63
2021/12/23 06:56:47;;;;;;;26.10;11.77;;;0.60;99.90;;;;;;5070854;28;20208;-62
2021/12/23 06:59:15;;;;;;;22.77;10.50;;;0.60;99.90;;;;;;5077887;28;20247;-62
2021/12/23 07:01:43;;;;;;;31.07;12.37;;;0.60;99.90;;;;;;5078361;28;20189;-62
2021/12/23 07:04:14;;;;;;;32.40;14.00;;;0.60;99.90;;;;;;5088062;28;20299;-62
2021/12/23 07:06:47;;;;;;;31.63;14.23;;;0.60;99.90;;;;;;5076134;28;20189;-63
2021/12/23 07:09:15;;;;;;;27.70;12.77;;;0.60;99.90;;;;;;5080898;28;20185;-62
2021/12/23 07:11:42;;;;;;;24.03;11.13;;;0.60;99.90;;;;;;5078277;28;20252;-62
2021/12/23 07:14:11;;;;;;;23.37;10.47;;;0.60;99.90;;;;;;5084074;28;20196;-62
2021/12/23 07:16:40;;;;;;;27.83;12.10;;;0.60;99.90;;;;;;5078447;28;20188;-62
2021/12/23 07:19:07;;;;;;;21.17;10.47;;;0.70;99.90;;;;;;5082184;28;20284;-62
2021/12/23 07:21:34;;;;;;;19.73;8.93;;;0.70;99.90;;;;;;5073530;28;20219;-61
2021/12/23 07:24:03;;;;;;;26.57;11.37;;;0.80;99.90;;;;;;5076571;28;20221;-61
2021/12/23 07:26:30;;;;;;;25.07;10.93;;;0.80;99.90;;;;;;5075018;28;20185;-62
2021/12/23 07:28:57;;;;;;;23.70;10.63;;;0.80;99.90;;;;;;5076535;28;20199;-62
2021/12/23 07:31:26;;;;;;;22.17;10.20;;;0.80;99.90;;;;;;5072992;28;20204;-62
2021/12/23 07:33:53;;;;;;;26.17;11.27;;;0.70;99.90;;;;;;5073645;28;20220;-61
2021/12/23 07:36:22;;;;;;;19.83;9.13;;;0.70;99.90;;;;;;5084255;28;20196;-62
2021/12/23 07:38:49;;;;;;;15.80;8.00;;;0.70;99.90;;;;;;5079111;28;20193;-60
2021/12/23 07:41:17;;;;;;;20.67;9.50;;;0.80;99.90;;;;;;5087729;28;20200;-60
2021/12/23 07:43:56;;;;;;;18.17;9.00;;;0.80;99.90;;;;;;5087594;28;20302;-61
2021/12/23 07:46:24;;;;;;;18.73;8.57;;;0.70;99.90;;;;;;5089532;28;20228;-62
2021/12/23 07:48:53;;;;;;;20.83;9.40;;;0.70;99.90;;;;;;5087429;28;20302;-62
2021/12/23 07:51:20;;;;;;;16.17;8.13;;;0.70;99.90;;;;;;5084648;28;20193;-62
2021/12/23 07:53:48;;;;;;;18.90;9.10;;;0.60;99.90;;;;;;5088247;28;20188;-62
2021/12/23 07:56:15;;;;;;;17.17;8.37;;;0.60;99.90;;;;;;5086204;28;20192;-62
2021/12/23 07:58:42;;;;;;;20.67;8.80;;;0.60;99.90;;;;;;5073691;28;20675;-62
2021/12/23 08:01:09;;;;;;;18.90;8.80;;;0.60;99.90;;;;;;5070757;28;20223;-62
2021/12/23 08:03:37;;;;;;;17.17;8.33;;;0.60;99.90;;;;;;5072309;28;20228;-63
2021/12/23 08:06:05;;;;;;;21.10;9.73;;;0.70;99.90;;;;;;5072551;28;20266;-62
2021/12/23 08:08:33;;;;;;;20.20;9.43;;;0.60;99.90;;;;;;5075366;28;20194;-62
2021/12/23 08:11:00;;;;;;;19.40;8.70;;;0.70;99.90;;;;;;5068968;28;20296;-62
2021/12/23 08:13:27;;;;;;;18.20;8.70;;;0.70;99.90;;;;;;5073834;28;20196;-61
2021/12/23 08:15:54;;;;;;;22.10;9.63;;;0.80;99.90;;;;;;5074847;28;20200;-62
2021/12/23 08:18:21;;;;;;;15.93;7.73;;;0.80;99.90;;;;;;5070865;28;20205;-62
2021/12/23 08:20:48;;;;;;;16.70;7.87;;;0.80;99.90;;;;;;5077495;28;20213;-62
2021/12/23 08:23:17;;;;;;;14.40;7.53;;;0.90;99.90;;;;;;5070885;28;20197;-61
2021/12/23 08:25:44;;;;;;;15.93;7.50;;;0.90;99.90;;;;;;5081739;28;20284;-62
2021/12/23 08:28:12;;;;;;;14.93;7.73;;;0.90;99.90;;;;;;5078397;28;20212;-62
2021/12/23 08:30:40;;;;;;;16.60;7.60;;;1.00;99.90;;;;;;5076213;28;20204;-62
2021/12/23 08:33:07;;;;;;;13.67;6.80;;;1.00;99.90;;;;;;5070821;28;20256;-62
2021/12/23 08:35:35;;;;;;;12.97;6.87;;;1.00;99.90;;;;;;5071613;28;20536;-62
2021/12/23 08:38:03;;;;;;;13.50;7.30;;;1.00;99.90;;;;;;5077549;28;20533;-62
2021/12/23 08:40:32;;;;;;;14.87;7.77;;;1.10;99.90;;;;;;5083965;28;20196;-62
2021/12/23 08:43:01;;;;;;;13.53;7.43;;;1.10;99.90;;;;;;5091119;28;20218;-62
2021/12/23 08:45:30;;;;;;;15.60;8.00;;;1.20;99.90;;;;;;5083638;28;20281;-63
2021/12/23 08:47:58;;;;;;;17.87;8.50;;;1.20;99.90;;;;;;5076294;28;20343;-62
2021/12/23 08:50:26;;;;;;;15.43;8.00;;;1.30;99.90;;;;;;5075058;28;20402;-61
2021/12/23 08:52:54;;;;;;;16.33;7.67;;;1.30;99.90;;;;;;5083614;28;20281;-61
2021/12/23 08:55:22;;;;;;;13.47;7.67;;;1.30;99.90;;;;;;5071006;28;20211;-62
2021/12/23 08:57:50;;;;;;;14.77;7.47;;;1.30;99.90;;;;;;5085234;28;20196;-62
2021/12/23 09:00:19;;;;;;;17.93;8.30;;;1.30;99.90;;;;;;5078309;28;20660;-62
2021/12/23 09:02:49;;;;;;;20.67;9.27;;;1.30;99.90;;;;;;5069482;28;20221;-63
2021/12/23 09:05:19;;;;;;;18.77;8.93;;;1.20;99.90;;;;;;5066983;28;20654;-62
2021/12/23 09:07:46;;;;;;;19.97;9.40;;;1.30;99.90;;;;;;5069574;28;20659;-63
2021/12/23 09:10:14;;;;;;;15.70;7.27;;;1.30;99.90;;;;;;5072346;28;20282;-61
2021/12/23 09:12:41;;;;;;;16.63;7.40;;;1.30;99.90;;;;;;5069578;28;20194;-62
2021/12/23 09:15:11;;;;;;;13.17;6.23;;;1.30;99.90;;;;;;5069051;28;20204;-62
2021/12/23 09:17:39;;;;;;;15.00;7.17;;;1.40;99.90;;;;;;5063040;28;20612;-62
2021/12/23 09:20:08;;;;;;;15.40;7.63;;;1.40;99.90;;;;;;5074088;28;20260;-62
2021/12/23 09:22:36;;;;;;;15.20;7.80;;;1.50;99.90;;;;;;5068321;28;20193;-62
2021/12/23 09:25:10;;;;;;;14.60;6.83;;;1.50;99.90;;;;;;5067023;28;20217;-61
2021/12/23 09:27:42;;;;;;;10.90;6.10;;;1.50;99.90;;;;;;5068791;28;20660;-61
2021/12/23 09:33:00;;;;;;;14.37;6.90;;;1.60;99.90;;;;;;5062244;28;20197;-62
2021/12/23 09:35:30;;;;;;;16.37;6.23;;;1.70;99.90;;;;;;5078136;28;20217;-61
2021/12/23 09:37:58;;;;;;;12.60;6.20;;;1.70;99.90;;;;;;5075758;28;20197;-63
2021/12/23 09:40:26;;;;;;;10.80;5.63;;;1.70;99.90;;;;;;5076289;28;20711;-63
2021/12/23 09:42:54;;;;;;;11.07;5.47;;;1.70;99.90;;;;;;5081836;28;20192;-63
2021/12/23 09:45:23;;;;;;;9.30;5.37;;;1.80;99.90;;;;;;5068966;28;20227;-62
2021/12/23 09:47:51;;;;;;;14.83;6.87;;;1.80;99.90;;;;;;5072699;28;20322;-63
2021/12/23 09:50:21;;;;;;;13.50;6.80;;;1.90;99.90;;;;;;5077243;28;20201;-62
2021/12/23 09:52:51;;;;;;;15.73;6.73;;;1.90;99.90;;;;;;5078156;28;20207;-62
2021/12/23 09:55:20;;;;;;;14.33;6.13;;;1.90;99.90;;;;;;5069710;28;20272;-62
2021/12/23 09:57:49;;;;;;;13.23;5.90;;;2.00;99.90;;;;;;5078208;28;20563;-62
2021/12/23 10:00:18;;;;;;;12.67;6.33;;;2.00;99.90;;;;;;5068155;28;20598;-61
2021/12/23 10:02:47;;;;;;;14.87;6.67;;;2.10;99.90;;;;;;5068144;28;20216;-62
2021/12/23 10:05:16;;;;;;;15.30;6.40;;;2.10;99.90;;;;;;5069074;28;20231;-63
2021/12/23 10:07:45;;;;;;;13.60;6.40;;;2.10;99.90;;;;;;5068197;28;20189;-63
2021/12/23 10:10:18;;;;;;;15.83;6.70;;;2.10;99.90;;;;;;5068205;28;20201;-62
2021/12/23 10:32:50;;;;;;;18.93;9.33;;;2.20;99.90;;;;;;5039839;28;20221;-62
2021/12/23 10:38:09;;;;;;;16.03;7.43;;;2.20;99.90;;;;;;5082989;28;20203;-61
2021/12/23 10:40:38;;;;;;;21.70;9.50;;;2.10;99.90;;;;;;5084225;28;20196;-62
2021/12/23 10:43:06;;;;;;;23.77;11.70;;;2.20;99.90;;;;;;5083280;28;20257;-62
2021/12/23 10:45:43;;;;;;;24.93;10.97;;;2.20;99.90;;;;;;5081438;28;20220;-62
2021/12/23 10:48:14;;;;;;;18.80;9.20;;;2.20;99.90;;;;;;5083414;28;20199;-62
2021/12/23 10:50:47;;;;;;;20.53;9.33;;;2.20;99.90;;;;;;5079439;28;20272;-63
2021/12/23 10:53:29;;;;;;;17.90;8.60;;;2.10;99.90;;;;;;5072696;28;20196;-63
2021/12/23 10:59:06;;;;;;;13.83;7.60;;;2.10;99.90;;;;;;5063213;28;20212;-62
2021/12/23 11:01:37;;;;;;;14.27;7.10;;;2.20;99.90;;;;;;5069118;28;20215;-62
2021/12/23 11:04:06;;;;;;;15.83;7.33;;;2.20;99.90;;;;;;5064875;28;20277;-63
2021/12/23 11:06:39;;;;;;;21.50;10.03;;;2.20;99.90;;;;;;5064571;28;20189;-62
2021/12/23 11:35:44;;;;;;;15.63;7.90;;;2.30;99.90;;;;;;5076991;28;20298;-62
2021/12/23 11:37:53;;;;;;;32.13;13.00;;;2.30;99.90;;;;;;5121313;28;20214;-62
2021/12/23 11:40:52;;;;;;;30.53;13.83;;;2.30;99.90;;;;;;5090053;28;20215;-62
2021/12/23 11:46:12;;;;;;;27.87;13.70;;;2.30;99.70;;;;;;5081170;28;20203;-62
2021/12/23 11:48:44;;;;;;;29.47;12.93;;;2.30;99.40;;;;;;5097618;28;20203;-61
2021/12/23 11:51:16;;;;;;;20.83;9.77;;;2.30;98.50;;;;;;5108422;28;20210;-61
2021/12/23 11:53:47;;;;;;;23.77;10.60;;;2.20;98.80;;;;;;5125039;28;20210;-62
2021/12/23 11:56:15;;;;;;;30.10;12.00;;;2.30;99.00;;;;;;5106051;28;20207;-62
2021/12/23 11:58:45;;;;;;;26.87;12.27;;;2.20;98.70;;;;;;5119657;28;20203;-62
2021/12/23 12:01:18;;;;;;;31.90;14.67;;;2.30;98.60;;;;;;5121546;28;20244;-61
2021/12/23 12:04:02;;;;;;;35.07;15.37;;;2.20;98.40;;;;;;5122062;28;20180;-62
2021/12/23 12:06:37;;;;;;;26.77;12.53;;;2.20;98.40;;;;;;5115678;28;20195;-62
2021/12/23 12:09:14;;;;;;;31.00;13.60;;;2.20;98.40;;;;;;5118363;28;20222;-62
2021/12/23 12:11:42;;;;;;;34.47;13.93;;;2.20;98.50;;;;;;5113345;28;20199;-62
2021/12/23 12:14:44;;;;;;;30.83;13.30;;;2.30;98.60;;;;;;5111851;28;20242;-62
2021/12/23 12:17:40;;;;;;;25.17;11.60;;;2.20;98.70;;;;;;5103823;28;20203;-62
2021/12/23 12:20:21;;;;;;;28.37;12.10;;;2.30;98.70;;;;;;5112723;28;20528;-62
2021/12/23 12:22:51;;;;;;;32.77;13.33;;;2.30;98.80;;;;;;5098314;28;20662;-61
2021/12/23 12:25:48;;;;;;;30.80;14.13;;;2.30;98.80;;;;;;5107418;28;20639;-61
2021/12/23 12:28:19;;;;;;;21.27;10.77;;;2.40;98.90;;;;;;5104678;28;20188;-62
2021/12/23 12:30:50;;;;;;;25.57;11.30;;;2.50;98.90;;;;;;5104954;28;20275;-62
2021/12/23 12:33:39;;;;;;;24.30;11.30;;;2.40;99.00;;;;;;5096153;28;20199;-62
2021/12/23 12:36:11;;;;;;;23.33;11.03;;;2.40;99.00;;;;;;5091619;28;20535;-61
2021/12/23 12:38:41;;;;;;;28.57;12.53;;;2.40;99.00;;;;;;5110573;28;20188;-61
2021/12/23 12:41:11;;;;;;;24.87;12.10;;;2.40;99.00;;;;;;5101638;28;20287;-61
2021/12/23 12:43:54;;;;;;;27.07;13.20;;;2.40;99.10;;;;;;5113499;28;20570;-60
2021/12/23 12:46:48;;;;;;;24.40;11.23;;;2.40;99.00;;;;;;5111964;28;20551;-61
2021/12/23 12:49:22;;;;;;;27.50;11.43;;;2.40;99.10;;;;;;5105158;28;20203;-61
2021/12/23 12:51:52;;;;;;;25.10;10.80;;;2.30;99.00;;;;;;5088989;28;20586;-60
2021/12/23 12:54:27;;;;;;;23.87;10.40;;;2.40;99.10;;;;;;5097143;28;20214;-61
2021/12/23 12:56:57;;;;;;;20.93;9.57;;;2.30;99.10;;;;;;5088965;28;20207;-61
2021/12/23 12:59:27;;;;;;;19.13;9.00;;;2.40;99.20;;;;;;5112192;28;20248;-62
2021/12/23 13:01:57;;;;;;;17.90;7.63;;;2.40;99.20;;;;;;5107625;28;20203;-62
2021/12/23 13:04:26;;;;;;;22.27;10.00;;;2.40;99.30;;;;;;5107532;28;20196;-62
2021/12/23 13:06:56;;;;;;;23.40;9.10;;;2.30;99.30;;;;;;5111929;28;20673;-62
2021/12/23 13:09:52;;;;;;;19.47;9.07;;;2.30;99.30;;;;;;5103033;28;20555;-61
2021/12/23 13:12:54;;;;;;;18.13;8.13;;;2.30;99.40;;;;;;5074450;28;20605;-62
2021/12/23 13:15:51;;;;;;;18.27;7.53;;;2.30;99.40;;;;;;5094318;28;20235;-61
2021/12/23 13:18:23;;;;;;;24.50;10.53;;;2.20;99.50;;;;;;5082684;28;20223;-61
2021/12/23 13:20:54;;;;;;;20.23;9.73;;;2.20;99.50;;;;;;5109159;28;20710;-61
2021/12/23 13:23:29;;;;;;;18.10;8.50;;;2.20;99.50;;;;;;5105981;28;20195;-61
2021/12/23 13:25:58;;;;;;;15.10;7.80;;;2.20;99.50;;;;;;5092653;28;20211;-61
2021/12/23 13:28:29;;;;;;;17.90;8.57;;;2.10;99.60;;;;;;5105968;28;20195;-61
2021/12/23 13:30:57;;;;;;;15.50;7.40;;;2.10;99.60;;;;;;5101666;28;20194;-62
2021/12/23 13:33:25;;;;;;;11.53;6.60;;;2.10;99.70;;;;;;5105043;28;20222;-61
2021/12/23 13:35:53;;;;;;;30.67;13.63;;;2.10;99.80;;;;;;5099809;28;20602;-62
2021/12/23 13:38:38;;;;;;;25.77;11.10;;;2.10;99.70;;;;;;5105742;28;20219;-61
2021/12/23 13:41:18;;;;;;;22.93;10.73;;;2.10;99.60;;;;;;5091856;28;20195;-61
2021/12/23 13:43:45;;;;;;;18.10;9.43;;;2.10;99.60;;;;;;5083903;28;20191;-61
2021/12/23 13:46:13;;;;;;;19.17;8.97;;;2.10;99.60;;;;;;5099443;28;20709;-62
2021/12/23 13:48:51;;;;;;;28.77;12.40;;;2.10;99.60;;;;;;5093738;28;20664;-60
2021/12/23 13:51:21;;;;;;;23.83;10.63;;;2.10;99.50;;;;;;5107056;28;20188;-62
2021/12/23 13:54:05;;;;;;;22.43;9.50;;;2.10;99.60;;;;;;5093819;28;20212;-59
2021/12/23 13:56:34;;;;;;;18.23;8.83;;;2.10;99.60;;;;;;5103553;28;20794;-60